sensor_id;sensor_type;location;lat;lon;timestamp;P1;durP1;ratioP1;P2;durP2;ratioP2
10767;SDS011;5436;51.162;4.162;2022-08-21T11:28:33;9.90;;;2.00;;
10767;SDS011;5436;51.162;4.162;2022-08-21T11:53:36;8.95;;;1.70;;
10767;SDS011;5436;51.162;4.162;2022-08-21T11:56:11;9.57;;;2.00;;
10767;SDS011;5436;51.162;4.162;2022-08-21T13:36:42;8.60;;;1.87;;
10767;SDS011;5436;51.162;4.162;2022-08-21T15:59:07;7.33;;;1.83;;
10767;SDS011;5436;51.162;4.162;2022-08-21T16:01:40;7.63;;;1.83;;
10767;SDS011;5436;51.162;4.162;2022-08-21T16:04:11;8.57;;;2.23;;
10767;SDS011;5436;51.162;4.162;2022-08-21T16:06:44;6.23;;;2.07;;
10767;SDS011;5436;51.162;4.162;2022-08-21T16:09:23;5.67;;;2.00;;
10767;SDS011;5436;51.162;4.162;2022-08-21T16:11:51;7.33;;;2.50;;
10767;SDS011;5436;51.162;4.162;2022-08-21T16:14:23;5.83;;;2.27;;
10767;SDS011;5436;51.162;4.162;2022-08-21T16:16:55;5.70;;;1.97;;
10767;SDS011;5436;51.162;4.162;2022-08-21T16:21:52;8.30;;;2.57;;
10767;SDS011;5436;51.162;4.162;2022-08-21T16:24:27;6.10;;;2.10;;
10767;SDS011;5436;51.162;4.162;2022-08-21T16:34:43;6.13;;;2.20;;
10767;SDS011;5436;51.162;4.162;2022-08-21T16:37:15;6.23;;;2.30;;
10767;SDS011;5436;51.162;4.162;2022-08-21T16:39:52;7.60;;;1.90;;
10767;SDS011;5436;51.162;4.162;2022-08-21T16:42:23;8.40;;;2.40;;
10767;SDS011;5436;51.162;4.162;2022-08-21T16:45:01;4.13;;;1.77;;
10767;SDS011;5436;51.162;4.162;2022-08-21T16:47:34;6.10;;;1.90;;
10767;SDS011;5436;51.162;4.162;2022-08-21T16:52:31;10.50;;;2.50;;
10767;SDS011;5436;51.162;4.162;2022-08-21T16:55:02;7.53;;;2.20;;
10767;SDS011;5436;51.162;4.162;2022-08-21T16:59:58;7.77;;;2.20;;
10767;SDS011;5436;51.162;4.162;2022-08-21T17:12:34;3.53;;;1.67;;
10767;SDS011;5436;51.162;4.162;2022-08-21T17:18:02;6.43;;;1.57;;
10767;SDS011;5436;51.162;4.162;2022-08-21T17:25:36;5.23;;;1.70;;
10767;SDS011;5436;51.162;4.162;2022-08-21T17:28:11;7.53;;;2.10;;
10767;SDS011;5436;51.162;4.162;2022-08-21T17:33:21;8.40;;;2.00;;
10767;SDS011;5436;51.162;4.162;2022-08-21T17:35:53;6.67;;;2.27;;
10767;SDS011;5436;51.162;4.162;2022-08-21T17:40:55;7.83;;;2.20;;
10767;SDS011;5436;51.162;4.162;2022-08-21T17:45:58;8.70;;;2.10;;
10767;SDS011;5436;51.162;4.162;2022-08-21T17:48:27;7.90;;;2.30;;
10767;SDS011;5436;51.162;4.162;2022-08-21T17:50:56;6.93;;;2.20;;
10767;SDS011;5436;51.162;4.162;2022-08-21T17:53:28;8.83;;;2.03;;
10767;SDS011;5436;51.162;4.162;2022-08-21T17:55:57;8.97;;;2.30;;
10767;SDS011;5436;51.162;4.162;2022-08-21T17:58:32;11.13;;;2.57;;
10767;SDS011;5436;51.162;4.162;2022-08-21T18:01:04;8.07;;;2.57;;
10767;SDS011;5436;51.162;4.162;2022-08-21T18:03:33;8.27;;;2.40;;
10767;SDS011;5436;51.162;4.162;2022-08-21T18:26:44;10.70;;;1.97;;
10767;SDS011;5436;51.162;4.162;2022-08-21T18:29:14;8.40;;;1.83;;
10767;SDS011;5436;51.162;4.162;2022-08-21T18:31:48;7.57;;;2.17;;
10767;SDS011;5436;51.162;4.162;2022-08-21T18:37:39;5.03;;;1.90;;
10767;SDS011;5436;51.162;4.162;2022-08-21T18:40:09;9.83;;;2.40;;
10767;SDS011;5436;51.162;4.162;2022-08-21T18:42:41;8.87;;;1.77;;
10767;SDS011;5436;51.162;4.162;2022-08-21T18:45:18;5.47;;;1.80;;
10767;SDS011;5436;51.162;4.162;2022-08-21T18:47:49;7.27;;;1.93;;
10767;SDS011;5436;51.162;4.162;2022-08-21T19:00:16;6.00;;;2.03;;
10767;SDS011;5436;51.162;4.162;2022-08-21T19:02:51;8.30;;;2.03;;
10767;SDS011;5436;51.162;4.162;2022-08-21T19:05:23;5.53;;;1.97;;
10767;SDS011;5436;51.162;4.162;2022-08-21T19:07:53;5.67;;;2.07;;
10767;SDS011;5436;51.162;4.162;2022-08-21T19:12:58;8.40;;;2.33;;
10767;SDS011;5436;51.162;4.162;2022-08-21T19:15:31;4.90;;;1.90;;
10767;SDS011;5436;51.162;4.162;2022-08-21T19:18:01;5.97;;;2.00;;
10767;SDS011;5436;51.162;4.162;2022-08-21T19:20:33;5.10;;;2.03;;
10767;SDS011;5436;51.162;4.162;2022-08-21T19:23:06;4.13;;;2.10;;
10767;SDS011;5436;51.162;4.162;2022-08-21T19:46:06;7.83;;;2.50;;
10767;SDS011;5436;51.162;4.162;2022-08-21T19:48:37;8.07;;;2.73;;
10767;SDS011;5436;51.162;4.162;2022-08-21T20:04:23;4.90;;;2.50;;
10767;SDS011;5436;51.162;4.162;2022-08-21T20:06:52;7.07;;;2.80;;
10767;SDS011;5436;51.162;4.162;2022-08-21T20:09:21;9.73;;;3.03;;
10767;SDS011;5436;51.162;4.162;2022-08-21T20:11:51;8.00;;;2.70;;
10767;SDS011;5436;51.162;4.162;2022-08-21T20:14:23;9.67;;;2.93;;
10767;SDS011;5436;51.162;4.162;2022-08-21T20:16:57;9.33;;;2.40;;
10767;SDS011;5436;51.162;4.162;2022-08-21T20:22:02;7.70;;;3.30;;
10767;SDS011;5436;51.162;4.162;2022-08-21T20:24:33;9.23;;;3.00;;
10767;SDS011;5436;51.162;4.162;2022-08-21T20:27:02;8.23;;;2.80;;
10767;SDS011;5436;51.162;4.162;2022-08-21T20:29:34;6.80;;;3.00;;
10767;SDS011;5436;51.162;4.162;2022-08-21T20:32:04;7.30;;;2.90;;
10767;SDS011;5436;51.162;4.162;2022-08-21T20:34:34;9.23;;;3.20;;
10767;SDS011;5436;51.162;4.162;2022-08-21T20:37:05;8.50;;;3.50;;
10767;SDS011;5436;51.162;4.162;2022-08-21T20:39:34;9.27;;;3.10;;
10767;SDS011;5436;51.162;4.162;2022-08-21T20:42:03;7.27;;;2.80;;
10767;SDS011;5436;51.162;4.162;2022-08-21T20:44:32;8.20;;;3.07;;
10767;SDS011;5436;51.162;4.162;2022-08-21T20:47:04;6.43;;;2.70;;
10767;SDS011;5436;51.162;4.162;2022-08-21T20:49:35;8.57;;;2.80;;
10767;SDS011;5436;51.162;4.162;2022-08-21T20:52:11;7.33;;;2.87;;
10767;SDS011;5436;51.162;4.162;2022-08-21T20:54:43;11.10;;;2.77;;
10767;SDS011;5436;51.162;4.162;2022-08-21T20:57:17;9.40;;;2.87;;
10767;SDS011;5436;51.162;4.162;2022-08-21T20:59:50;7.87;;;3.07;;
10767;SDS011;5436;51.162;4.162;2022-08-21T21:02:28;5.63;;;2.90;;
10767;SDS011;5436;51.162;4.162;2022-08-21T21:05:08;7.80;;;3.20;;
10767;SDS011;5436;51.162;4.162;2022-08-21T21:07:47;7.87;;;3.27;;
10767;SDS011;5436;51.162;4.162;2022-08-21T21:10:24;7.87;;;3.20;;
10767;SDS011;5436;51.162;4.162;2022-08-21T21:12:57;7.53;;;3.03;;
10767;SDS011;5436;51.162;4.162;2022-08-21T21:15:31;7.13;;;2.90;;
10767;SDS011;5436;51.162;4.162;2022-08-21T21:18:03;8.00;;;2.80;;
10767;SDS011;5436;51.162;4.162;2022-08-21T21:20:38;8.03;;;2.73;;
10767;SDS011;5436;51.162;4.162;2022-08-21T21:23:18;10.27;;;3.10;;
10767;SDS011;5436;51.162;4.162;2022-08-21T21:25:53;8.57;;;3.60;;
10767;SDS011;5436;51.162;4.162;2022-08-21T21:28:28;5.73;;;2.63;;
10767;SDS011;5436;51.162;4.162;2022-08-21T21:31:04;8.83;;;3.33;;
10767;SDS011;5436;51.162;4.162;2022-08-21T21:33:32;9.37;;;3.10;;
10767;SDS011;5436;51.162;4.162;2022-08-21T21:36:05;9.87;;;3.43;;
10767;SDS011;5436;51.162;4.162;2022-08-21T21:38:45;5.53;;;2.90;;
10767;SDS011;5436;51.162;4.162;2022-08-21T21:41:20;11.27;;;3.30;;
10767;SDS011;5436;51.162;4.162;2022-08-21T21:43:57;4.90;;;3.07;;
10767;SDS011;5436;51.162;4.162;2022-08-21T21:46:36;8.60;;;2.93;;
10767;SDS011;5436;51.162;4.162;2022-08-21T21:49:24;4.90;;;2.50;;
10767;SDS011;5436;51.162;4.162;2022-08-21T21:52:08;7.47;;;2.60;;
10767;SDS011;5436;51.162;4.162;2022-08-21T21:54:57;6.07;;;2.90;;
10767;SDS011;5436;51.162;4.162;2022-08-21T21:57:36;8.97;;;3.00;;
10767;SDS011;5436;51.162;4.162;2022-08-21T22:00:17;6.83;;;2.73;;
10767;SDS011;5436;51.162;4.162;2022-08-21T22:02:55;5.40;;;2.67;;
10767;SDS011;5436;51.162;4.162;2022-08-21T22:05:37;7.67;;;2.60;;
10767;SDS011;5436;51.162;4.162;2022-08-21T22:08:18;7.27;;;2.67;;
10767;SDS011;5436;51.162;4.162;2022-08-21T22:10:57;7.97;;;3.10;;
10767;SDS011;5436;51.162;4.162;2022-08-21T22:13:31;7.33;;;2.50;;
10767;SDS011;5436;51.162;4.162;2022-08-21T22:16:03;6.73;;;2.57;;
10767;SDS011;5436;51.162;4.162;2022-08-21T22:18:34;6.57;;;2.77;;
10767;SDS011;5436;51.162;4.162;2022-08-21T22:21:08;5.30;;;2.43;;
10767;SDS011;5436;51.162;4.162;2022-08-21T22:23:41;8.77;;;3.20;;
10767;SDS011;5436;51.162;4.162;2022-08-21T22:26:17;8.03;;;3.20;;
10767;SDS011;5436;51.162;4.162;2022-08-21T22:28:48;8.83;;;2.73;;
10767;SDS011;5436;51.162;4.162;2022-08-21T22:31:19;7.83;;;2.80;;
10767;SDS011;5436;51.162;4.162;2022-08-21T22:34:01;10.70;;;3.07;;
10767;SDS011;5436;51.162;4.162;2022-08-21T22:36:36;8.07;;;2.60;;
10767;SDS011;5436;51.162;4.162;2022-08-21T22:39:11;9.67;;;2.50;;
10767;SDS011;5436;51.162;4.162;2022-08-21T22:41:45;7.23;;;2.50;;
10767;SDS011;5436;51.162;4.162;2022-08-21T22:44:18;5.20;;;2.57;;
10767;SDS011;5436;51.162;4.162;2022-08-21T22:46:49;7.57;;;2.70;;
10767;SDS011;5436;51.162;4.162;2022-08-21T22:49:31;5.20;;;2.40;;
10767;SDS011;5436;51.162;4.162;2022-08-21T22:52:06;5.00;;;2.30;;
10767;SDS011;5436;51.162;4.162;2022-08-21T22:54:38;7.97;;;2.70;;
10767;SDS011;5436;51.162;4.162;2022-08-21T22:57:19;7.50;;;2.93;;
10767;SDS011;5436;51.162;4.162;2022-08-21T22:59:51;4.47;;;2.60;;
10767;SDS011;5436;51.162;4.162;2022-08-21T23:02:26;7.40;;;2.90;;
10767;SDS011;5436;51.162;4.162;2022-08-21T23:05:01;8.83;;;2.90;;
10767;SDS011;5436;51.162;4.162;2022-08-21T23:07:34;6.17;;;2.40;;
10767;SDS011;5436;51.162;4.162;2022-08-21T23:10:06;4.93;;;3.17;;
10767;SDS011;5436;51.162;4.162;2022-08-21T23:12:46;7.77;;;2.93;;
10767;SDS011;5436;51.162;4.162;2022-08-21T23:15:17;5.53;;;2.77;;
10767;SDS011;5436;51.162;4.162;2022-08-21T23:17:47;11.67;;;3.00;;
10767;SDS011;5436;51.162;4.162;2022-08-21T23:20:28;10.60;;;3.13;;
10767;SDS011;5436;51.162;4.162;2022-08-21T23:23:08;8.47;;;2.93;;
10767;SDS011;5436;51.162;4.162;2022-08-21T23:25:47;7.17;;;2.93;;
10767;SDS011;5436;51.162;4.162;2022-08-21T23:28:35;8.07;;;2.97;;
10767;SDS011;5436;51.162;4.162;2022-08-21T23:31:17;9.37;;;3.00;;
10767;SDS011;5436;51.162;4.162;2022-08-21T23:33:59;10.13;;;3.60;;
10767;SDS011;5436;51.162;4.162;2022-08-21T23:36:32;7.47;;;2.63;;
10767;SDS011;5436;51.162;4.162;2022-08-21T23:39:29;7.47;;;3.30;;
10767;SDS011;5436;51.162;4.162;2022-08-21T23:42:17;10.93;;;3.77;;
10767;SDS011;5436;51.162;4.162;2022-08-21T23:44:59;7.40;;;3.10;;
10767;SDS011;5436;51.162;4.162;2022-08-21T23:47:43;10.00;;;3.20;;
10767;SDS011;5436;51.162;4.162;2022-08-21T23:50:20;7.00;;;3.17;;
10767;SDS011;5436;51.162;4.162;2022-08-21T23:52:57;5.87;;;2.93;;
10767;SDS011;5436;51.162;4.162;2022-08-21T23:55:36;10.07;;;3.27;;
10767;SDS011;5436;51.162;4.162;2022-08-21T23:58:15;7.57;;;3.53;;
